sensor_id;sensor_type;location;lat;lon;timestamp;temperature;humidity
5796;DHT22;2924;51.458;7.046;2023-10-08T00:01:35;17.40;99.90
5796;DHT22;2924;51.458;7.046;2023-10-08T00:04:06;17.40;99.90
5796;DHT22;2924;51.458;7.046;2023-10-08T00:06:33;17.40;99.90
5796;DHT22;2924;51.458;7.046;2023-10-08T00:08:58;17.40;99.90
5796;DHT22;2924;51.458;7.046;2023-10-08T00:11:36;17.40;99.90
5796;DHT22;2924;51.458;7.046;2023-10-08T00:14:03;17.40;99.90
5796;DHT22;2924;51.458;7.046;2023-10-08T00:16:30;17.40;99.90
5796;DHT22;2924;51.458;7.046;2023-10-08T00:18:59;17.50;99.90
5796;DHT22;2924;51.458;7.046;2023-10-08T00:21:32;17.50;99.90
5796;DHT22;2924;51.458;7.046;2023-10-08T00:23:59;17.50;99.90
5796;DHT22;2924;51.458;7.046;2023-10-08T00:26:25;17.50;99.90
5796;DHT22;2924;51.458;7.046;2023-10-08T00:31:32;17.40;99.90
5796;DHT22;2924;51.458;7.046;2023-10-08T00:34:04;17.40;99.90
5796;DHT22;2924;51.458;7.046;2023-10-08T00:36:44;17.30;99.90
5796;DHT22;2924;51.458;7.046;2023-10-08T00:39:12;17.30;99.90
5796;DHT22;2924;51.458;7.046;2023-10-08T00:41:48;17.30;99.90
5796;DHT22;2924;51.458;7.046;2023-10-08T00:44:15;17.30;99.90
5796;DHT22;2924;51.458;7.046;2023-10-08T00:46:42;17.30;99.90
5796;DHT22;2924;51.458;7.046;2023-10-08T00:49:16;17.30;99.90
5796;DHT22;2924;51.458;7.046;2023-10-08T00:52:04;17.30;99.90
5796;DHT22;2924;51.458;7.046;2023-10-08T00:54:34;17.20;99.90
5796;DHT22;2924;51.458;7.046;2023-10-08T00:57:14;17.20;99.90
5796;DHT22;2924;51.458;7.046;2023-10-08T00:59:45;17.20;99.90
5796;DHT22;2924;51.458;7.046;2023-10-08T01:02:15;17.20;99.90
5796;DHT22;2924;51.458;7.046;2023-10-08T01:04:45;17.20;99.90
5796;DHT22;2924;51.458;7.046;2023-10-08T01:07:12;17.20;99.90
5796;DHT22;2924;51.458;7.046;2023-10-08T01:09:39;17.10;99.90
5796;DHT22;2924;51.458;7.046;2023-10-08T01:12:12;17.10;99.90
5796;DHT22;2924;51.458;7.046;2023-10-08T01:14:41;17.00;99.90
5796;DHT22;2924;51.458;7.046;2023-10-08T01:17:09;16.90;99.90
5796;DHT22;2924;51.458;7.046;2023-10-08T01:19:35;16.90;99.90
5796;DHT22;2924;51.458;7.046;2023-10-08T01:22:05;16.90;99.90
5796;DHT22;2924;51.458;7.046;2023-10-08T01:24:47;16.90;99.90
5796;DHT22;2924;51.458;7.046;2023-10-08T01:27:17;16.80;99.90
5796;DHT22;2924;51.458;7.046;2023-10-08T01:29:51;16.80;99.90
5796;DHT22;2924;51.458;7.046;2023-10-08T01:32:20;16.80;99.90
5796;DHT22;2924;51.458;7.046;2023-10-08T01:34:47;16.80;99.90
5796;DHT22;2924;51.458;7.046;2023-10-08T01:37:14;16.80;99.90
5796;DHT22;2924;51.458;7.046;2023-10-08T01:39:43;16.80;99.90
5796;DHT22;2924;51.458;7.046;2023-10-08T01:42:09;16.90;99.90
5796;DHT22;2924;51.458;7.046;2023-10-08T01:44:43;16.90;99.90
5796;DHT22;2924;51.458;7.046;2023-10-08T01:47:11;16.90;99.90
5796;DHT22;2924;51.458;7.046;2023-10-08T01:49:37;16.90;99.90
5796;DHT22;2924;51.458;7.046;2023-10-08T01:52:05;17.00;99.90
5796;DHT22;2924;51.458;7.046;2023-10-08T01:54:33;17.00;99.90
5796;DHT22;2924;51.458;7.046;2023-10-08T01:57:01;17.00;99.90
5796;DHT22;2924;51.458;7.046;2023-10-08T01:59:31;17.00;99.90
5796;DHT22;2924;51.458;7.046;2023-10-08T02:01:56;16.80;99.90
5796;DHT22;2924;51.458;7.046;2023-10-08T02:04:22;16.80;99.90
5796;DHT22;2924;51.458;7.046;2023-10-08T02:06:48;16.80;99.90
5796;DHT22;2924;51.458;7.046;2023-10-08T02:09:13;16.70;99.90
5796;DHT22;2924;51.458;7.046;2023-10-08T02:11:46;16.60;99.90
5796;DHT22;2924;51.458;7.046;2023-10-08T02:14:31;16.60;99.90
5796;DHT22;2924;51.458;7.046;2023-10-08T02:17:01;16.60;99.90
5796;DHT22;2924;51.458;7.046;2023-10-08T02:19:31;16.60;99.90
5796;DHT22;2924;51.458;7.046;2023-10-08T02:21:57;16.60;99.90
5796;DHT22;2924;51.458;7.046;2023-10-08T02:24:24;16.60;99.90
5796;DHT22;2924;51.458;7.046;2023-10-08T02:26:53;16.60;99.90
5796;DHT22;2924;51.458;7.046;2023-10-08T02:29:21;16.60;99.90
5796;DHT22;2924;51.458;7.046;2023-10-08T02:31:47;16.60;99.90
5796;DHT22;2924;51.458;7.046;2023-10-08T02:34:13;16.60;99.90
5796;DHT22;2924;51.458;7.046;2023-10-08T02:36:40;16.50;99.90
5796;DHT22;2924;51.458;7.046;2023-10-08T02:39:06;16.50;99.90
5796;DHT22;2924;51.458;7.046;2023-10-08T02:41:51;16.50;99.90
5796;DHT22;2924;51.458;7.046;2023-10-08T02:44:18;16.40;99.90
5796;DHT22;2924;51.458;7.046;2023-10-08T02:46:47;16.30;99.90
5796;DHT22;2924;51.458;7.046;2023-10-08T02:49:14;16.20;99.90
5796;DHT22;2924;51.458;7.046;2023-10-08T02:51:46;16.20;99.90
5796;DHT22;2924;51.458;7.046;2023-10-08T02:54:11;16.20;99.90
5796;DHT22;2924;51.458;7.046;2023-10-08T02:56:53;16.20;99.90
5796;DHT22;2924;51.458;7.046;2023-10-08T02:59:28;16.20;99.90
5796;DHT22;2924;51.458;7.046;2023-10-08T03:01:53;16.10;99.90
5796;DHT22;2924;51.458;7.046;2023-10-08T03:04:22;16.20;99.90
5796;DHT22;2924;51.458;7.046;2023-10-08T03:06:50;16.10;99.90
5796;DHT22;2924;51.458;7.046;2023-10-08T03:09:18;16.20;99.90
5796;DHT22;2924;51.458;7.046;2023-10-08T03:11:47;16.20;99.90
5796;DHT22;2924;51.458;7.046;2023-10-08T03:14:14;16.20;99.90
5796;DHT22;2924;51.458;7.046;2023-10-08T03:16:47;16.20;99.90
5796;DHT22;2924;51.458;7.046;2023-10-08T03:19:13;16.20;99.90
5796;DHT22;2924;51.458;7.046;2023-10-08T03:21:40;16.20;99.90
5796;DHT22;2924;51.458;7.046;2023-10-08T03:24:05;16.30;99.90
5796;DHT22;2924;51.458;7.046;2023-10-08T03:26:54;16.30;99.90
5796;DHT22;2924;51.458;7.046;2023-10-08T03:29:21;16.30;99.90
5796;DHT22;2924;51.458;7.046;2023-10-08T03:31:47;16.30;99.90
5796;DHT22;2924;51.458;7.046;2023-10-08T03:34:16;16.30;99.90
5796;DHT22;2924;51.458;7.046;2023-10-08T03:36:44;16.30;99.90
5796;DHT22;2924;51.458;7.046;2023-10-08T03:39:10;16.30;99.90
5796;DHT22;2924;51.458;7.046;2023-10-08T03:41:39;16.30;99.90
5796;DHT22;2924;51.458;7.046;2023-10-08T03:44:06;16.30;99.90
5796;DHT22;2924;51.458;7.046;2023-10-08T03:46:38;16.30;99.90
5796;DHT22;2924;51.458;7.046;2023-10-08T03:49:15;16.30;99.90
5796;DHT22;2924;51.458;7.046;2023-10-08T03:51:51;16.20;99.90
5796;DHT22;2924;51.458;7.046;2023-10-08T03:54:21;16.20;99.90
5796;DHT22;2924;51.458;7.046;2023-10-08T03:57:00;16.20;99.90
5796;DHT22;2924;51.458;7.046;2023-10-08T03:59:26;16.10;99.90
5796;DHT22;2924;51.458;7.046;2023-10-08T04:02:00;16.10;99.90
5796;DHT22;2924;51.458;7.046;2023-10-08T04:04:45;16.00;99.90
5796;DHT22;2924;51.458;7.046;2023-10-08T04:07:21;16.00;99.90
5796;DHT22;2924;51.458;7.046;2023-10-08T04:09:52;16.10;99.90
5796;DHT22;2924;51.458;7.046;2023-10-08T04:12:36;16.10;99.90
5796;DHT22;2924;51.458;7.046;2023-10-08T04:15:10;16.10;99.90
5796;DHT22;2924;51.458;7.046;2023-10-08T04:17:38;16.10;99.90
5796;DHT22;2924;51.458;7.046;2023-10-08T04:20:11;16.00;99.90
5796;DHT22;2924;51.458;7.046;2023-10-08T04:22:55;16.10;99.90
5796;DHT22;2924;51.458;7.046;2023-10-08T04:25:21;16.00;99.90
5796;DHT22;2924;51.458;7.046;2023-10-08T04:27:47;15.90;99.90
5796;DHT22;2924;51.458;7.046;2023-10-08T04:30:15;15.90;99.90
5796;DHT22;2924;51.458;7.046;2023-10-08T04:32:41;15.80;99.90
5796;DHT22;2924;51.458;7.046;2023-10-08T04:35:07;15.80;99.90
5796;DHT22;2924;51.458;7.046;2023-10-08T04:37:40;15.70;99.90
5796;DHT22;2924;51.458;7.046;2023-10-08T04:40:07;15.70;99.90
5796;DHT22;2924;51.458;7.046;2023-10-08T04:42:41;15.70;99.90
5796;DHT22;2924;51.458;7.046;2023-10-08T04:45:10;15.70;99.90
5796;DHT22;2924;51.458;7.046;2023-10-08T04:47:40;15.70;99.90
5796;DHT22;2924;51.458;7.046;2023-10-08T04:50:08;15.70;99.90
5796;DHT22;2924;51.458;7.046;2023-10-08T04:52:40;15.70;99.90
5796;DHT22;2924;51.458;7.046;2023-10-08T04:55:11;15.80;99.90
5796;DHT22;2924;51.458;7.046;2023-10-08T04:57:46;15.80;99.90
5796;DHT22;2924;51.458;7.046;2023-10-08T05:00:11;15.80;99.90
5796;DHT22;2924;51.458;7.046;2023-10-08T05:02:40;15.70;99.90
5796;DHT22;2924;51.458;7.046;2023-10-08T05:05:15;15.70;99.90
5796;DHT22;2924;51.458;7.046;2023-10-08T05:07:41;15.60;99.90
5796;DHT22;2924;51.458;7.046;2023-10-08T05:10:10;15.60;99.90
5796;DHT22;2924;51.458;7.046;2023-10-08T05:12:42;15.60;99.90
5796;DHT22;2924;51.458;7.046;2023-10-08T05:15:16;15.60;99.90
5796;DHT22;2924;51.458;7.046;2023-10-08T05:17:44;15.60;99.90
5796;DHT22;2924;51.458;7.046;2023-10-08T05:20:21;15.70;99.90
5796;DHT22;2924;51.458;7.046;2023-10-08T05:23:11;15.60;99.90
5796;DHT22;2924;51.458;7.046;2023-10-08T05:25:53;15.60;99.90
5796;DHT22;2924;51.458;7.046;2023-10-08T05:28:24;15.60;99.90
5796;DHT22;2924;51.458;7.046;2023-10-08T05:30:50;15.60;99.90
5796;DHT22;2924;51.458;7.046;2023-10-08T05:33:30;15.60;99.90
5796;DHT22;2924;51.458;7.046;2023-10-08T05:36:16;15.50;99.90
5796;DHT22;2924;51.458;7.046;2023-10-08T05:38:53;15.50;99.90
5796;DHT22;2924;51.458;7.046;2023-10-08T05:41:47;15.50;99.90
5796;DHT22;2924;51.458;7.046;2023-10-08T05:44:31;15.50;99.90
5796;DHT22;2924;51.458;7.046;2023-10-08T05:47:14;15.40;99.90
5796;DHT22;2924;51.458;7.046;2023-10-08T05:49:58;15.40;99.90
5796;DHT22;2924;51.458;7.046;2023-10-08T05:52:46;15.30;99.90
5796;DHT22;2924;51.458;7.046;2023-10-08T05:55:25;15.30;99.90
5796;DHT22;2924;51.458;7.046;2023-10-08T05:57:59;15.30;99.90
5796;DHT22;2924;51.458;7.046;2023-10-08T06:00:50;15.30;99.90
5796;DHT22;2924;51.458;7.046;2023-10-08T06:03:17;15.30;99.90
5796;DHT22;2924;51.458;7.046;2023-10-08T06:06:02;15.30;99.90
5796;DHT22;2924;51.458;7.046;2023-10-08T06:08:48;15.30;99.90
5796;DHT22;2924;51.458;7.046;2023-10-08T06:11:47;15.40;99.90
5796;DHT22;2924;51.458;7.046;2023-10-08T06:14:32;15.30;99.90
5796;DHT22;2924;51.458;7.046;2023-10-08T06:17:16;15.30;99.90
5796;DHT22;2924;51.458;7.046;2023-10-08T06:20:02;15.20;99.90
5796;DHT22;2924;51.458;7.046;2023-10-08T06:22:35;15.20;99.90
5796;DHT22;2924;51.458;7.046;2023-10-08T06:25:02;15.30;99.90
5796;DHT22;2924;51.458;7.046;2023-10-08T06:27:41;15.30;99.90
5796;DHT22;2924;51.458;7.046;2023-10-08T06:30:13;15.30;99.90
5796;DHT22;2924;51.458;7.046;2023-10-08T06:32:43;15.40;99.90
5796;DHT22;2924;51.458;7.046;2023-10-08T06:35:10;15.40;99.90
5796;DHT22;2924;51.458;7.046;2023-10-08T06:37:43;15.40;99.90
5796;DHT22;2924;51.458;7.046;2023-10-08T06:40:11;15.50;99.90
5796;DHT22;2924;51.458;7.046;2023-10-08T06:42:56;15.60;99.90
5796;DHT22;2924;51.458;7.046;2023-10-08T06:45:22;15.60;99.90
5796;DHT22;2924;51.458;7.046;2023-10-08T06:47:48;15.60;99.90
5796;DHT22;2924;51.458;7.046;2023-10-08T06:50:15;15.60;99.90
5796;DHT22;2924;51.458;7.046;2023-10-08T06:52:41;15.60;99.90
5796;DHT22;2924;51.458;7.046;2023-10-08T06:55:09;15.70;99.90
5796;DHT22;2924;51.458;7.046;2023-10-08T06:57:37;15.80;99.90
5796;DHT22;2924;51.458;7.046;2023-10-08T07:00:04;15.80;99.90
5796;DHT22;2924;51.458;7.046;2023-10-08T07:02:37;15.80;99.90
5796;DHT22;2924;51.458;7.046;2023-10-08T07:05:05;15.90;99.90
5796;DHT22;2924;51.458;7.046;2023-10-08T07:07:34;15.80;99.90
5796;DHT22;2924;51.458;7.046;2023-10-08T07:10:05;15.90;99.90
5796;DHT22;2924;51.458;7.046;2023-10-08T07:12:36;15.80;99.90
5796;DHT22;2924;51.458;7.046;2023-10-08T07:15:02;15.90;99.90
5796;DHT22;2924;51.458;7.046;2023-10-08T07:17:30;15.90;99.90
5796;DHT22;2924;51.458;7.046;2023-10-08T07:20:06;15.90;99.90
5796;DHT22;2924;51.458;7.046;2023-10-08T07:22:39;15.90;99.90
5796;DHT22;2924;51.458;7.046;2023-10-08T07:25:09;15.80;99.90
5796;DHT22;2924;51.458;7.046;2023-10-08T07:27:34;15.90;99.90
5796;DHT22;2924;51.458;7.046;2023-10-08T07:30:03;15.90;99.90
5796;DHT22;2924;51.458;7.046;2023-10-08T07:32:38;15.90;99.90
5796;DHT22;2924;51.458;7.046;2023-10-08T07:35:05;15.90;99.90
5796;DHT22;2924;51.458;7.046;2023-10-08T07:37:56;15.90;99.90
5796;DHT22;2924;51.458;7.046;2023-10-08T07:40:22;15.90;99.90
5796;DHT22;2924;51.458;7.046;2023-10-08T07:42:53;16.00;99.90
5796;DHT22;2924;51.458;7.046;2023-10-08T07:45:19;16.00;99.90
5796;DHT22;2924;51.458;7.046;2023-10-08T07:47:47;16.10;99.90
5796;DHT22;2924;51.458;7.046;2023-10-08T07:50:13;16.20;99.90
5796;DHT22;2924;51.458;7.046;2023-10-08T07:52:41;16.20;99.90
5796;DHT22;2924;51.458;7.046;2023-10-08T07:55:10;16.20;99.90
5796;DHT22;2924;51.458;7.046;2023-10-08T07:57:35;16.20;99.90
5796;DHT22;2924;51.458;7.046;2023-10-08T08:00:01;16.20;99.90
5796;DHT22;2924;51.458;7.046;2023-10-08T08:02:43;16.30;99.90
5796;DHT22;2924;51.458;7.046;2023-10-08T08:05:09;16.40;99.90
5796;DHT22;2924;51.458;7.046;2023-10-08T08:07:35;16.40;99.90
5796;DHT22;2924;51.458;7.046;2023-10-08T08:10:02;16.40;99.90
5796;DHT22;2924;51.458;7.046;2023-10-08T08:12:36;16.40;99.90
5796;DHT22;2924;51.458;7.046;2023-10-08T08:15:03;16.40;99.90
5796;DHT22;2924;51.458;7.046;2023-10-08T08:17:41;16.40;99.90
5796;DHT22;2924;51.458;7.046;2023-10-08T08:20:07;16.30;99.90
5796;DHT22;2924;51.458;7.046;2023-10-08T08:22:43;15.80;99.90
5796;DHT22;2924;51.458;7.046;2023-10-08T08:25:15;15.70;99.90
5796;DHT22;2924;51.458;7.046;2023-10-08T08:27:44;15.50;99.90
5796;DHT22;2924;51.458;7.046;2023-10-08T08:30:12;15.40;99.90
5796;DHT22;2924;51.458;7.046;2023-10-08T08:32:42;15.10;99.90
5796;DHT22;2924;51.458;7.046;2023-10-08T08:35:12;14.70;99.90
5796;DHT22;2924;51.458;7.046;2023-10-08T08:37:42;14.30;99.90
5796;DHT22;2924;51.458;7.046;2023-10-08T08:40:08;14.30;99.90
5796;DHT22;2924;51.458;7.046;2023-10-08T08:42:35;14.40;99.90
5796;DHT22;2924;51.458;7.046;2023-10-08T08:45:09;14.50;99.90
5796;DHT22;2924;51.458;7.046;2023-10-08T08:47:36;14.30;99.90
5796;DHT22;2924;51.458;7.046;2023-10-08T08:50:03;14.20;99.90
5796;DHT22;2924;51.458;7.046;2023-10-08T08:52:38;14.20;99.90
5796;DHT22;2924;51.458;7.046;2023-10-08T08:55:05;14.20;99.90
5796;DHT22;2924;51.458;7.046;2023-10-08T08:57:36;14.30;99.90
5796;DHT22;2924;51.458;7.046;2023-10-08T09:00:05;14.40;99.90
5796;DHT22;2924;51.458;7.046;2023-10-08T09:02:39;14.30;99.90
5796;DHT22;2924;51.458;7.046;2023-10-08T09:05:05;14.20;99.90
5796;DHT22;2924;51.458;7.046;2023-10-08T09:08:12;14.20;99.90
5796;DHT22;2924;51.458;7.046;2023-10-08T09:10:37;14.10;99.90
5796;DHT22;2924;51.458;7.046;2023-10-08T09:13:07;14.00;99.90
5796;DHT22;2924;51.458;7.046;2023-10-08T09:15:35;13.90;99.90
5796;DHT22;2924;51.458;7.046;2023-10-08T09:18:02;13.90;99.90
5796;DHT22;2924;51.458;7.046;2023-10-08T09:20:30;13.80;99.90
5796;DHT22;2924;51.458;7.046;2023-10-08T09:23:26;13.70;99.90
5796;DHT22;2924;51.458;7.046;2023-10-08T09:25:52;13.60;99.90
5796;DHT22;2924;51.458;7.046;2023-10-08T09:28:27;13.60;99.90
5796;DHT22;2924;51.458;7.046;2023-10-08T09:30:54;13.60;99.90
5796;DHT22;2924;51.458;7.046;2023-10-08T09:33:24;13.70;99.90
5796;DHT22;2924;51.458;7.046;2023-10-08T09:35:51;13.80;99.90
5796;DHT22;2924;51.458;7.046;2023-10-08T09:38:21;14.00;99.90
5796;DHT22;2924;51.458;7.046;2023-10-08T09:40:49;14.00;99.90
5796;DHT22;2924;51.458;7.046;2023-10-08T09:43:16;14.10;99.90
5796;DHT22;2924;51.458;7.046;2023-10-08T09:45:55;14.20;99.90
5796;DHT22;2924;51.458;7.046;2023-10-08T09:48:24;14.30;99.90
5796;DHT22;2924;51.458;7.046;2023-10-08T09:50:52;14.10;99.90
5796;DHT22;2924;51.458;7.046;2023-10-08T09:53:24;14.10;99.90
5796;DHT22;2924;51.458;7.046;2023-10-08T09:55:56;13.80;99.90
5796;DHT22;2924;51.458;7.046;2023-10-08T09:58:22;13.80;99.90
5796;DHT22;2924;51.458;7.046;2023-10-08T10:00:50;13.70;99.90
5796;DHT22;2924;51.458;7.046;2023-10-08T10:03:18;13.60;99.90
5796;DHT22;2924;51.458;7.046;2023-10-08T10:05:44;13.60;99.90
5796;DHT22;2924;51.458;7.046;2023-10-08T10:08:10;13.60;99.90
5796;DHT22;2924;51.458;7.046;2023-10-08T10:10:37;13.50;99.90
5796;DHT22;2924;51.458;7.046;2023-10-08T10:13:09;13.70;99.90
5796;DHT22;2924;51.458;7.046;2023-10-08T10:15:38;13.80;99.90
5796;DHT22;2924;51.458;7.046;2023-10-08T10:18:15;13.70;99.90
5796;DHT22;2924;51.458;7.046;2023-10-08T10:20:45;13.70;99.90
5796;DHT22;2924;51.458;7.046;2023-10-08T10:26:03;13.60;99.90
5796;DHT22;2924;51.458;7.046;2023-10-08T10:28:29;13.60;99.90
5796;DHT22;2924;51.458;7.046;2023-10-08T10:30:55;13.50;99.90
5796;DHT22;2924;51.458;7.046;2023-10-08T10:33:29;13.60;99.90
5796;DHT22;2924;51.458;7.046;2023-10-08T10:35:55;13.60;99.90
5796;DHT22;2924;51.458;7.046;2023-10-08T10:38:20;13.60;99.90
5796;DHT22;2924;51.458;7.046;2023-10-08T10:40:51;13.50;99.90
5796;DHT22;2924;51.458;7.046;2023-10-08T10:43:25;13.60;99.90
5796;DHT22;2924;51.458;7.046;2023-10-08T10:46:05;13.80;99.90
5796;DHT22;2924;51.458;7.046;2023-10-08T10:48:49;14.10;99.90
5796;DHT22;2924;51.458;7.046;2023-10-08T10:51:28;14.10;99.90
5796;DHT22;2924;51.458;7.046;2023-10-08T10:53:57;13.90;99.90
5796;DHT22;2924;51.458;7.046;2023-10-08T10:56:28;13.90;99.90
5796;DHT22;2924;51.458;7.046;2023-10-08T10:59:02;13.90;99.90
5796;DHT22;2924;51.458;7.046;2023-10-08T11:01:42;13.90;99.90
5796;DHT22;2924;51.458;7.046;2023-10-08T11:04:12;14.00;99.90
5796;DHT22;2924;51.458;7.046;2023-10-08T11:06:45;14.10;99.90
5796;DHT22;2924;51.458;7.046;2023-10-08T11:09:11;14.20;99.90
5796;DHT22;2924;51.458;7.046;2023-10-08T11:11:43;14.20;99.90
5796;DHT22;2924;51.458;7.046;2023-10-08T11:14:12;14.20;99.90
5796;DHT22;2924;51.458;7.046;2023-10-08T11:16:42;14.30;99.90
5796;DHT22;2924;51.458;7.046;2023-10-08T11:19:09;14.30;99.90
5796;DHT22;2924;51.458;7.046;2023-10-08T11:21:50;14.40;99.90
5796;DHT22;2924;51.458;7.046;2023-10-08T11:24:32;14.40;99.90
5796;DHT22;2924;51.458;7.046;2023-10-08T11:27:02;14.60;99.90
5796;DHT22;2924;51.458;7.046;2023-10-08T11:29:47;14.90;99.90
5796;DHT22;2924;51.458;7.046;2023-10-08T11:32:15;15.00;99.90
5796;DHT22;2924;51.458;7.046;2023-10-08T11:34:47;15.20;99.90
5796;DHT22;2924;51.458;7.046;2023-10-08T11:37:26;15.40;99.90
5796;DHT22;2924;51.458;7.046;2023-10-08T11:39:52;15.40;99.90
5796;DHT22;2924;51.458;7.046;2023-10-08T11:42:19;15.30;99.90
5796;DHT22;2924;51.458;7.046;2023-10-08T11:44:56;15.20;99.90
5796;DHT22;2924;51.458;7.046;2023-10-08T11:47:25;15.20;99.90
5796;DHT22;2924;51.458;7.046;2023-10-08T11:49:56;15.40;99.90
5796;DHT22;2924;51.458;7.046;2023-10-08T11:52:35;15.30;99.90
5796;DHT22;2924;51.458;7.046;2023-10-08T11:55:07;15.20;99.90
5796;DHT22;2924;51.458;7.046;2023-10-08T11:57:33;15.30;99.90
5796;DHT22;2924;51.458;7.046;2023-10-08T12:00:01;15.50;99.90
5796;DHT22;2924;51.458;7.046;2023-10-08T12:02:42;15.80;99.90
5796;DHT22;2924;51.458;7.046;2023-10-08T12:05:09;16.00;99.90
5796;DHT22;2924;51.458;7.046;2023-10-08T12:07:45;15.90;99.90
5796;DHT22;2924;51.458;7.046;2023-10-08T12:10:11;15.80;99.90
5796;DHT22;2924;51.458;7.046;2023-10-08T12:12:36;16.10;99.90
5796;DHT22;2924;51.458;7.046;2023-10-08T12:15:02;16.20;99.90
5796;DHT22;2924;51.458;7.046;2023-10-08T12:17:29;15.90;99.90
5796;DHT22;2924;51.458;7.046;2023-10-08T12:20:03;16.00;99.90
5796;DHT22;2924;51.458;7.046;2023-10-08T12:22:37;16.00;99.90
5796;DHT22;2924;51.458;7.046;2023-10-08T12:25:03;15.80;99.90
5796;DHT22;2924;51.458;7.046;2023-10-08T12:27:32;15.90;99.90
5796;DHT22;2924;51.458;7.046;2023-10-08T12:29:59;16.30;99.90
5796;DHT22;2924;51.458;7.046;2023-10-08T12:32:24;16.40;99.90
5796;DHT22;2924;51.458;7.046;2023-10-08T12:34:51;16.50;99.90
5796;DHT22;2924;51.458;7.046;2023-10-08T12:37:19;16.60;99.90
5796;DHT22;2924;51.458;7.046;2023-10-08T12:39:45;16.50;99.90
5796;DHT22;2924;51.458;7.046;2023-10-08T12:42:26;16.60;99.90
5796;DHT22;2924;51.458;7.046;2023-10-08T12:44:52;16.40;99.90
5796;DHT22;2924;51.458;7.046;2023-10-08T12:47:17;16.30;99.90
5796;DHT22;2924;51.458;7.046;2023-10-08T12:49:43;16.20;99.90
5796;DHT22;2924;51.458;7.046;2023-10-08T12:52:12;16.00;99.90
5796;DHT22;2924;51.458;7.046;2023-10-08T12:54:40;15.80;99.90
5796;DHT22;2924;51.458;7.046;2023-10-08T12:57:10;15.90;99.90
5796;DHT22;2924;51.458;7.046;2023-10-08T12:59:36;15.80;99.90
5796;DHT22;2924;51.458;7.046;2023-10-08T13:02:03;15.80;99.90
5796;DHT22;2924;51.458;7.046;2023-10-08T13:04:33;15.90;99.90
5796;DHT22;2924;51.458;7.046;2023-10-08T13:07:01;15.90;99.90
5796;DHT22;2924;51.458;7.046;2023-10-08T13:09:29;15.70;99.90
5796;DHT22;2924;51.458;7.046;2023-10-08T13:11:57;15.80;99.90
5796;DHT22;2924;51.458;7.046;2023-10-08T13:14:25;15.90;99.90
5796;DHT22;2924;51.458;7.046;2023-10-08T13:16:50;16.00;99.90
5796;DHT22;2924;51.458;7.046;2023-10-08T13:19:19;16.10;99.90
5796;DHT22;2924;51.458;7.046;2023-10-08T13:21:45;16.20;99.90
5796;DHT22;2924;51.458;7.046;2023-10-08T13:24:11;16.20;99.90
5796;DHT22;2924;51.458;7.046;2023-10-08T13:26:38;16.40;99.90
5796;DHT22;2924;51.458;7.046;2023-10-08T13:29:04;16.40;99.90
5796;DHT22;2924;51.458;7.046;2023-10-08T13:31:31;16.50;99.90
5796;DHT22;2924;51.458;7.046;2023-10-08T13:34:01;16.50;99.90
5796;DHT22;2924;51.458;7.046;2023-10-08T13:36:29;16.20;99.90
5796;DHT22;2924;51.458;7.046;2023-10-08T13:38:54;16.20;99.90
5796;DHT22;2924;51.458;7.046;2023-10-08T13:41:20;16.10;99.90
5796;DHT22;2924;51.458;7.046;2023-10-08T13:43:48;16.20;99.90
5796;DHT22;2924;51.458;7.046;2023-10-08T13:46:15;16.20;99.90
5796;DHT22;2924;51.458;7.046;2023-10-08T13:48:44;16.20;99.90
5796;DHT22;2924;51.458;7.046;2023-10-08T13:51:18;16.10;99.90
5796;DHT22;2924;51.458;7.046;2023-10-08T13:53:54;16.20;99.90
5796;DHT22;2924;51.458;7.046;2023-10-08T13:56:25;16.30;99.90
5796;DHT22;2924;51.458;7.046;2023-10-08T13:58:52;16.30;99.90
5796;DHT22;2924;51.458;7.046;2023-10-08T14:01:23;16.30;99.90
5796;DHT22;2924;51.458;7.046;2023-10-08T14:03:51;16.40;99.90
5796;DHT22;2924;51.458;7.046;2023-10-08T14:06:22;16.50;99.90
5796;DHT22;2924;51.458;7.046;2023-10-08T14:08:48;16.70;99.90
5796;DHT22;2924;51.458;7.046;2023-10-08T14:11:22;16.70;99.90
5796;DHT22;2924;51.458;7.046;2023-10-08T14:13:55;16.70;99.90
5796;DHT22;2924;51.458;7.046;2023-10-08T14:16:21;16.80;99.90
5796;DHT22;2924;51.458;7.046;2023-10-08T14:18:54;16.90;99.90
5796;DHT22;2924;51.458;7.046;2023-10-08T14:21:21;16.90;99.90
5796;DHT22;2924;51.458;7.046;2023-10-08T14:23:50;16.90;99.90
5796;DHT22;2924;51.458;7.046;2023-10-08T14:26:18;16.70;99.90
5796;DHT22;2924;51.458;7.046;2023-10-08T14:28:50;16.70;99.90
5796;DHT22;2924;51.458;7.046;2023-10-08T14:31:22;16.60;99.90
5796;DHT22;2924;51.458;7.046;2023-10-08T14:33:49;16.40;99.90
5796;DHT22;2924;51.458;7.046;2023-10-08T14:36:24;16.40;99.90
5796;DHT22;2924;51.458;7.046;2023-10-08T14:39:08;16.20;99.90
5796;DHT22;2924;51.458;7.046;2023-10-08T14:41:52;16.10;99.90
5796;DHT22;2924;51.458;7.046;2023-10-08T14:44:37;16.20;99.90
5796;DHT22;2924;51.458;7.046;2023-10-08T14:47:06;16.20;99.90
5796;DHT22;2924;51.458;7.046;2023-10-08T14:49:33;16.10;99.90
5796;DHT22;2924;51.458;7.046;2023-10-08T14:51:59;16.20;99.90
5796;DHT22;2924;51.458;7.046;2023-10-08T14:54:25;16.10;99.90
5796;DHT22;2924;51.458;7.046;2023-10-08T14:56:54;16.20;99.90
5796;DHT22;2924;51.458;7.046;2023-10-08T14:59:20;16.10;99.90
5796;DHT22;2924;51.458;7.046;2023-10-08T15:01:46;15.80;99.90
5796;DHT22;2924;51.458;7.046;2023-10-08T15:04:13;15.80;99.90
5796;DHT22;2924;51.458;7.046;2023-10-08T15:06:39;15.80;99.90
5796;DHT22;2924;51.458;7.046;2023-10-08T15:09:08;15.80;99.90
5796;DHT22;2924;51.458;7.046;2023-10-08T15:11:34;15.90;99.90
5796;DHT22;2924;51.458;7.046;2023-10-08T15:14:04;15.70;99.90
5796;DHT22;2924;51.458;7.046;2023-10-08T15:16:38;15.70;99.90
5796;DHT22;2924;51.458;7.046;2023-10-08T15:19:04;15.60;99.90
5796;DHT22;2924;51.458;7.046;2023-10-08T15:21:31;15.60;99.90
5796;DHT22;2924;51.458;7.046;2023-10-08T15:23:59;15.60;99.90
5796;DHT22;2924;51.458;7.046;2023-10-08T15:26:32;15.60;99.90
5796;DHT22;2924;51.458;7.046;2023-10-08T15:28:57;15.60;99.90
5796;DHT22;2924;51.458;7.046;2023-10-08T15:31:23;15.60;99.90
5796;DHT22;2924;51.458;7.046;2023-10-08T15:33:50;15.60;99.90
5796;DHT22;2924;51.458;7.046;2023-10-08T15:36:15;15.70;99.90
5796;DHT22;2924;51.458;7.046;2023-10-08T15:38:41;15.70;99.90
5796;DHT22;2924;51.458;7.046;2023-10-08T15:41:06;15.70;99.90
5796;DHT22;2924;51.458;7.046;2023-10-08T15:43:32;15.60;99.90
5796;DHT22;2924;51.458;7.046;2023-10-08T15:45:59;15.50;99.90
5796;DHT22;2924;51.458;7.046;2023-10-08T15:48:26;15.40;99.90
5796;DHT22;2924;51.458;7.046;2023-10-08T15:50:51;15.40;99.90
5796;DHT22;2924;51.458;7.046;2023-10-08T15:53:17;15.50;99.90
5796;DHT22;2924;51.458;7.046;2023-10-08T15:55:46;15.60;99.90
5796;DHT22;2924;51.458;7.046;2023-10-08T15:58:12;15.50;99.90
5796;DHT22;2924;51.458;7.046;2023-10-08T16:00:38;15.40;99.90
5796;DHT22;2924;51.458;7.046;2023-10-08T16:03:04;15.40;99.90
5796;DHT22;2924;51.458;7.046;2023-10-08T16:05:31;15.40;99.90
5796;DHT22;2924;51.458;7.046;2023-10-08T16:07:56;15.30;99.90
5796;DHT22;2924;51.458;7.046;2023-10-08T16:10:25;15.30;99.90
5796;DHT22;2924;51.458;7.046;2023-10-08T16:12:50;15.30;99.90
5796;DHT22;2924;51.458;7.046;2023-10-08T16:15:16;15.20;99.90
5796;DHT22;2924;51.458;7.046;2023-10-08T16:17:43;15.30;99.90
5796;DHT22;2924;51.458;7.046;2023-10-08T16:20:09;15.20;99.90
5796;DHT22;2924;51.458;7.046;2023-10-08T16:22:44;15.30;99.90
5796;DHT22;2924;51.458;7.046;2023-10-08T16:25:11;15.10;99.90
5796;DHT22;2924;51.458;7.046;2023-10-08T16:27:41;15.00;99.90
5796;DHT22;2924;51.458;7.046;2023-10-08T16:30:20;15.00;99.90